createdAt,value
2022-12-19T00:03:59.804Z,-1.09
2022-12-19T00:09:02.062Z,-0.99
2022-12-19T00:14:03.666Z,-1.30
2022-12-19T00:19:05.376Z,-2.07
2022-12-19T00:24:20.514Z,-2.52
2022-12-19T00:29:23.400Z,-2.80
2022-12-19T00:34:25.015Z,-2.35
2022-12-19T00:39:26.599Z,-2.29
2022-12-19T00:44:28.197Z,-2.30
2022-12-19T00:49:29.726Z,-1.32
2022-12-19T00:54:31.419Z,-0.74
2022-12-19T00:59:33.362Z,-0.82
2022-12-19T01:04:41.132Z,-0.91
2022-12-19T01:09:43.323Z,-0.77
2022-12-19T01:14:45.504Z,-0.72
2022-12-19T01:19:47.053Z,-0.86
2022-12-19T01:24:48.614Z,-1.35
2022-12-19T01:29:52.924Z,-1.96
2022-12-19T01:34:55.170Z,-2.32
2022-12-19T01:39:56.705Z,-2.19
2022-12-19T01:45:13.536Z,-1.66
2022-12-19T01:50:20.612Z,-1.71
2022-12-19T01:55:23.157Z,-1.50
2022-12-19T02:00:24.803Z,-0.50
2022-12-19T02:05:26.331Z,-0.10
2022-12-19T02:10:27.889Z,-0.45
2022-12-19T02:15:35.483Z,-0.48
2022-12-19T02:21:24.865Z,-0.27
2022-12-19T02:26:57.055Z,-0.17
2022-12-19T02:32:36.400Z,-0.20
2022-12-19T02:37:49.341Z,-0.93
2022-12-19T02:42:59.522Z,-1.42
2022-12-19T02:48:08.449Z,-1.66
2022-12-19T02:53:12.442Z,-1.63
2022-12-19T02:58:41.287Z,-1.25
2022-12-19T03:03:55.843Z,-1.18
2022-12-19T03:09:26.546Z,-0.82
2022-12-19T03:14:30.175Z,0.13
2022-12-19T03:19:32.212Z,0.54
2022-12-19T03:24:33.880Z,0.33
2022-12-19T03:29:59.957Z,0.20
2022-12-19T03:35:09.637Z,0.34
2022-12-19T03:40:15.203Z,0.41
2022-12-19T03:45:29.273Z,0.50
2022-12-19T03:50:42.573Z,0.54
2022-12-19T03:55:53.487Z,0.51
2022-12-19T04:00:57.654Z,0.42
2022-12-19T04:06:02.873Z,0.52
2022-12-19T04:11:11.169Z,0.66
2022-12-19T04:16:24.255Z,0.64
2022-12-19T04:21:33.169Z,0.83
2022-12-19T04:26:41.301Z,1.10
2022-12-19T04:31:44.945Z,1.09
2022-12-19T04:36:47.663Z,0.73
2022-12-19T04:41:49.215Z,0.50
2022-12-19T04:46:51.066Z,0.14
2022-12-19T04:51:52.917Z,-0.12
2022-12-19T04:56:54.651Z,-0.36
2022-12-19T05:01:56.310Z,-0.32
2022-12-19T05:06:58.709Z,-0.03
2022-12-19T05:12:00.444Z,-0.18
2022-12-19T05:17:02.190Z,-0.47
2022-12-19T05:22:04.140Z,-0.36
2022-12-19T05:27:05.994Z,-0.12
2022-12-19T05:32:08.222Z,0.87
2022-12-19T05:37:09.785Z,1.84
2022-12-19T05:42:12.668Z,1.82
2022-12-19T05:47:14.388Z,1.90
2022-12-19T05:52:15.999Z,1.87
2022-12-19T05:57:17.700Z,2.00
2022-12-19T06:02:19.746Z,2.08
2022-12-19T06:07:21.548Z,2.21
2022-12-19T06:12:23.288Z,2.19
2022-12-19T06:17:24.904Z,2.30
2022-12-19T06:22:26.484Z,2.21
2022-12-19T06:27:28.008Z,2.46
2022-12-19T06:32:32.363Z,2.34
2022-12-19T06:37:39.570Z,2.38
2022-12-19T06:42:41.255Z,2.46
2022-12-19T06:47:42.824Z,2.61
2022-12-19T06:52:45.240Z,2.67
2022-12-19T06:57:47.501Z,2.64
2022-12-19T07:02:52.022Z,2.76
2022-12-19T07:07:53.833Z,2.82
2022-12-19T07:12:55.348Z,2.67
2022-12-19T07:17:56.856Z,2.79
2022-12-19T07:23:00.846Z,2.92
2022-12-19T07:28:02.476Z,3.05
2022-12-19T07:33:04.946Z,3.19
2022-12-19T07:38:08.833Z,3.23
2022-12-19T07:43:10.710Z,3.22
2022-12-19T07:48:12.176Z,3.32
2022-12-19T07:53:14.045Z,3.35
2022-12-19T07:58:16.327Z,3.45
2022-12-19T08:03:18.098Z,3.35
2022-12-19T08:08:20.636Z,3.33
2022-12-19T08:13:22.230Z,3.24
2022-12-19T08:18:25.032Z,3.37
2022-12-19T08:23:26.746Z,3.24
2022-12-19T08:28:28.361Z,3.29
2022-12-19T08:33:29.966Z,3.48
2022-12-19T08:38:31.776Z,3.43
2022-12-19T08:43:33.782Z,3.73
2022-12-19T08:48:36.749Z,3.94
2022-12-19T08:53:40.097Z,4.02
2022-12-19T08:58:42.535Z,4.11
2022-12-19T09:04:29.826Z,4.07
2022-12-19T09:09:07.453Z,4.07
2022-12-19T09:14:09.047Z,4.18
2022-12-19T09:19:15.520Z,4.14
2022-12-19T09:24:17.131Z,4.33
2022-12-19T09:29:20.633Z,4.40
2022-12-19T09:34:33.236Z,4.45
2022-12-19T09:39:40.643Z,4.46
2022-12-19T09:45:31.908Z,4.45
2022-12-19T09:51:10.477Z,4.37
2022-12-19T09:56:15.978Z,4.45
2022-12-19T10:01:22.651Z,4.72
2022-12-19T10:07:10.428Z,4.85
2022-12-19T10:12:44.663Z,4.87
2022-12-19T10:17:52.510Z,4.88
2022-12-19T10:23:18.070Z,4.84
2022-12-19T10:28:29.086Z,4.87
2022-12-19T10:34:17.097Z,4.88
2022-12-19T10:39:36.058Z,4.72
2022-12-19T10:44:40.093Z,4.86
2022-12-19T10:49:42.068Z,4.97
2022-12-19T10:54:43.922Z,5.11
2022-12-19T10:59:57.431Z,5.09
2022-12-19T11:04:59.323Z,5.15
2022-12-19T11:10:33.938Z,5.18
2022-12-19T11:19:23.334Z,5.10
2022-12-19T11:29:34.221Z,5.14
2022-12-19T11:29:36.671Z,5.15
2022-12-19T11:32:38.765Z,5.13
2022-12-19T11:37:40.817Z,5.02
2022-12-19T11:43:10.799Z,5.13
2022-12-19T11:48:36.405Z,5.02
2022-12-19T11:54:04.644Z,5.08
2022-12-19T11:59:30.804Z,5.05
2022-12-19T12:04:38.129Z,5.09
2022-12-19T12:14:34.598Z,5.06
2022-12-19T12:28:12.472Z,5.12
2022-12-19T12:31:11.835Z,5.28
2022-12-19T12:31:53.295Z,5.43
2022-12-19T12:35:40.776Z,5.33
2022-12-19T12:38:38.554Z,5.40
2022-12-19T12:43:58.800Z,5.48
2022-12-19T12:49:23.997Z,5.37
2022-12-19T12:54:32.447Z,5.39
2022-12-19T12:59:34.412Z,5.43
2022-12-19T13:04:42.877Z,5.43
2022-12-19T13:09:46.222Z,5.40
2022-12-19T13:14:52.288Z,5.39
2022-12-19T13:20:34.939Z,5.41
2022-12-19T13:25:36.683Z,5.38
2022-12-19T13:31:19.337Z,5.34
2022-12-19T13:39:49.683Z,5.38
2022-12-19T13:42:36.557Z,5.42
2022-12-19T13:47:42.371Z,5.54
2022-12-19T13:52:49.136Z,5.53
2022-12-19T13:57:55.272Z,5.54
2022-12-19T14:02:59.193Z,5.56
2022-12-19T14:08:05.105Z,5.52
2022-12-19T14:13:48.419Z,5.51
2022-12-19T14:18:56.194Z,5.45
2022-12-19T14:24:20.564Z,5.65
2022-12-19T14:30:08.591Z,5.71
2022-12-19T14:36:05.242Z,5.56
2022-12-19T14:40:31.753Z,5.62
2022-12-19T14:50:59.897Z,5.67
2022-12-19T14:54:20.958Z,5.78
2022-12-19T14:56:59.108Z,5.93
2022-12-19T15:02:08.130Z,5.95
2022-12-19T15:07:14.670Z,5.88
2022-12-19T15:14:52.307Z,5.80
2022-12-19T15:18:37.859Z,5.81
2022-12-19T15:23:39.784Z,5.85
2022-12-19T15:28:50.831Z,5.86
2022-12-19T15:34:33.760Z,5.80
2022-12-19T15:39:15.363Z,5.75
2022-12-19T15:44:22.273Z,5.69
2022-12-19T15:49:23.810Z,5.62
2022-12-19T15:59:47.102Z,5.53
2022-12-19T16:04:50.718Z,5.59
2022-12-19T16:09:52.979Z,5.68
2022-12-19T16:14:57.820Z,5.63
2022-12-19T16:19:59.334Z,5.57
2022-12-19T16:25:00.920Z,5.54
2022-12-19T16:30:23.948Z,5.56
2022-12-19T16:36:02.300Z,5.54
2022-12-19T16:40:51.870Z,5.40
2022-12-19T16:45:58.106Z,5.47
2022-12-19T16:51:02.851Z,5.51
2022-12-19T16:56:05.113Z,5.66
2022-12-19T17:01:09.910Z,5.71
2022-12-19T17:06:16.438Z,5.61
2022-12-19T17:11:28.702Z,5.43
2022-12-19T17:16:31.164Z,5.47
2022-12-19T17:21:32.795Z,5.48
2022-12-19T17:26:35.383Z,5.39
2022-12-19T17:31:40.637Z,5.35
2022-12-19T17:36:42.347Z,5.35
2022-12-19T17:41:43.909Z,5.38
2022-12-19T17:46:47.394Z,5.46
2022-12-19T17:51:52.204Z,5.47
2022-12-19T17:56:53.840Z,5.33
2022-12-19T18:01:55.566Z,5.40
2022-12-19T18:06:57.148Z,5.44
2022-12-19T18:11:58.657Z,5.52
2022-12-19T18:17:00.705Z,5.50
2022-12-19T18:22:02.385Z,5.50
2022-12-19T18:27:05.389Z,5.52
2022-12-19T18:32:07.909Z,5.48
2022-12-19T18:37:14.796Z,5.46
2022-12-19T18:42:20.797Z,5.55
2022-12-19T18:47:25.443Z,5.58
2022-12-19T18:52:27.059Z,5.57
2022-12-19T18:57:28.680Z,5.61
2022-12-19T19:02:30.928Z,5.65
2022-12-19T19:07:32.688Z,5.57
2022-12-19T19:12:34.244Z,5.58
2022-12-19T19:17:35.821Z,5.53
2022-12-19T19:22:37.449Z,5.52
2022-12-19T19:27:39.946Z,5.44
2022-12-19T19:32:48.146Z,5.52
2022-12-19T19:37:52.774Z,5.55
2022-12-19T19:42:54.265Z,5.44
2022-12-19T19:47:55.796Z,5.40
2022-12-19T19:52:58.151Z,5.58
2022-12-19T19:57:59.761Z,5.73
2022-12-19T20:03:06.190Z,5.81
2022-12-19T20:08:08.952Z,5.82
2022-12-19T20:13:11.203Z,5.84
2022-12-19T20:18:12.869Z,5.83
2022-12-19T20:23:15.640Z,5.75
2022-12-19T20:28:17.990Z,5.82
2022-12-19T20:33:19.542Z,5.96
2022-12-19T20:38:21.027Z,5.96
2022-12-19T20:43:23.794Z,5.97
2022-12-19T20:48:25.349Z,6.00
2022-12-19T20:53:27.335Z,5.96
2022-12-19T20:58:30.493Z,6.03
2022-12-19T21:03:32.636Z,6.10
2022-12-19T21:08:35.134Z,6.10
2022-12-19T21:13:38.300Z,6.21
2022-12-19T21:18:41.457Z,6.21
2022-12-19T21:23:43.686Z,6.10
2022-12-19T21:28:45.263Z,6.05
2022-12-19T21:33:47.584Z,6.10
2022-12-19T21:38:52.375Z,6.10
2022-12-19T21:43:55.786Z,6.07
2022-12-19T21:48:57.404Z,6.26
2022-12-19T21:54:01.033Z,6.33
2022-12-19T21:59:09.776Z,6.32
2022-12-19T22:04:17.928Z,6.28
2022-12-19T22:09:22.626Z,6.28
2022-12-19T22:14:24.215Z,6.27
2022-12-19T22:19:26.998Z,6.24
2022-12-19T22:24:28.577Z,6.12
2022-12-19T22:29:30.104Z,6.17
2022-12-19T22:34:31.917Z,6.21
2022-12-19T22:39:33.495Z,6.22
2022-12-19T22:44:35.094Z,6.20
2022-12-19T22:49:36.595Z,6.29
2022-12-19T22:54:38.162Z,6.27
2022-12-19T22:59:40.472Z,6.12
2022-12-19T23:04:42.539Z,6.13
2022-12-19T23:09:44.110Z,6.16
2022-12-19T23:14:49.572Z,6.12
2022-12-19T23:19:51.029Z,6.08
2022-12-19T23:24:52.580Z,6.08
2022-12-19T23:29:54.117Z,6.20
2022-12-19T23:34:55.657Z,6.24
2022-12-19T23:39:57.250Z,6.22
2022-12-19T23:44:58.755Z,6.32
2022-12-19T23:50:00.299Z,6.34
2022-12-19T23:55:01.780Z,6.29
